Marne, Ohio
Current Conditions -  °F | °C
As of 9:54 PM on Friday 28 Nov 2014 (Local Time) from KVTA Reporting Station
Broken Clouds Broken Clouds  
Wind Chill: 25°   Ceiling: 12000
Heat Index: 31°   Visibility: 10mi
Dew Point: 17°   Wind: 6mph
Humidity: 57%   Direction: 160°SSE
Pressure: 30.15"   Gusts: NA
Location:  40.1181°N, 82.3726°W
Report Text: KVTA 290254Z AUTO 16005KT 10SM BKN120 M01/M08 A3015 RMK AO2 SLP221 T10061083 58015
Loading
Personal Weather Stations






























Interactive Weather Map New forecast layout! Learn more

10-Day Weather Forecast

Advertisements
Track Severe Weather on mobile